sensor_id;sensor_type;location;lat;lon;timestamp;pressure;altitude;pressure_sealevel;temperature;humidity
59519;BME280;46994;54.976;73.404;2022-08-21T00:00:42;100765.78;;;11.60;81.05
59519;BME280;46994;54.976;73.404;2022-08-21T00:03:11;100750.69;;;11.59;81.96
59519;BME280;46994;54.976;73.404;2022-08-21T00:05:43;100761.06;;;11.70;81.22
59519;BME280;46994;54.976;73.404;2022-08-21T00:08:10;100741.97;;;11.65;81.11
59519;BME280;46994;54.976;73.404;2022-08-21T00:10:39;100767.78;;;11.90;80.48
59519;BME280;46994;54.976;73.404;2022-08-21T00:13:06;100750.47;;;11.93;79.88
59519;BME280;46994;54.976;73.404;2022-08-21T00:15:35;100748.09;;;11.98;79.75
59519;BME280;46994;54.976;73.404;2022-08-21T00:18:03;100751.91;;;12.20;80.83
59519;BME280;46994;54.976;73.404;2022-08-21T00:20:30;100755.50;;;12.35;79.36
59519;BME280;46994;54.976;73.404;2022-08-21T00:22:57;100750.56;;;12.47;79.37
59519;BME280;46994;54.976;73.404;2022-08-21T00:25:24;100739.28;;;12.51;79.08
59519;BME280;46994;54.976;73.404;2022-08-21T00:27:51;100743.41;;;12.62;78.61
59519;BME280;46994;54.976;73.404;2022-08-21T00:30:19;100751.25;;;12.72;79.64
59519;BME280;46994;54.976;73.404;2022-08-21T00:32:47;100753.34;;;12.84;79.44
59519;BME280;46994;54.976;73.404;2022-08-21T00:35:17;100737.75;;;12.80;77.11
59519;BME280;46994;54.976;73.404;2022-08-21T00:37:44;100742.06;;;12.89;76.78
59519;BME280;46994;54.976;73.404;2022-08-21T00:40:15;100741.97;;;12.97;76.66
59519;BME280;46994;54.976;73.404;2022-08-21T00:42:43;100746.38;;;12.98;76.04
59519;BME280;46994;54.976;73.404;2022-08-21T00:45:10;100740.81;;;13.00;75.83
59519;BME280;46994;54.976;73.404;2022-08-21T00:47:37;100759.28;;;13.03;76.34
59519;BME280;46994;54.976;73.404;2022-08-21T00:50:06;100746.84;;;13.25;75.38
59519;BME280;46994;54.976;73.404;2022-08-21T00:52:36;100747.47;;;13.27;74.72
59519;BME280;46994;54.976;73.404;2022-08-21T00:55:05;100741.00;;;13.21;74.63
59519;BME280;46994;54.976;73.404;2022-08-21T00:57:39;100744.50;;;13.22;74.61
59519;BME280;46994;54.976;73.404;2022-08-21T01:00:10;100757.25;;;13.28;74.02
59519;BME280;46994;54.976;73.404;2022-08-21T01:02:38;100749.72;;;13.23;75.11
59519;BME280;46994;54.976;73.404;2022-08-21T01:05:06;100757.34;;;13.34;74.58
59519;BME280;46994;54.976;73.404;2022-08-21T01:07:33;100751.00;;;13.27;74.94
59519;BME280;46994;54.976;73.404;2022-08-21T01:10:00;100748.03;;;13.22;74.68
59519;BME280;46994;54.976;73.404;2022-08-21T01:12:27;100753.88;;;13.26;74.86
59519;BME280;46994;54.976;73.404;2022-08-21T01:14:53;100749.81;;;13.30;74.28
59519;BME280;46994;54.976;73.404;2022-08-21T01:17:21;100747.97;;;13.30;74.92
59519;BME280;46994;54.976;73.404;2022-08-21T01:19:48;100746.31;;;13.29;75.23
59519;BME280;46994;54.976;73.404;2022-08-21T01:22:14;100754.38;;;13.29;75.86
59519;BME280;46994;54.976;73.404;2022-08-21T01:24:41;100746.00;;;13.24;75.28
59519;BME280;46994;54.976;73.404;2022-08-21T01:27:08;100756.50;;;13.34;75.76
59519;BME280;46994;54.976;73.404;2022-08-21T01:29:44;100750.88;;;13.43;75.11
59519;BME280;46994;54.976;73.404;2022-08-21T01:32:24;100742.59;;;13.45;74.79
59519;BME280;46994;54.976;73.404;2022-08-21T01:34:52;100749.13;;;13.51;74.81
59519;BME280;46994;54.976;73.404;2022-08-21T01:37:21;100746.88;;;13.54;75.67
59519;BME280;46994;54.976;73.404;2022-08-21T01:39:48;100745.13;;;13.61;74.54
59519;BME280;46994;54.976;73.404;2022-08-21T01:42:15;100739.47;;;13.71;73.62
59519;BME280;46994;54.976;73.404;2022-08-21T01:44:43;100747.56;;;13.86;74.76
59519;BME280;46994;54.976;73.404;2022-08-21T01:47:13;100738.34;;;13.95;73.80
59519;BME280;46994;54.976;73.404;2022-08-21T01:49:41;100753.94;;;14.14;74.44
59519;BME280;46994;54.976;73.404;2022-08-21T01:52:08;100743.38;;;14.63;73.13
59519;BME280;46994;54.976;73.404;2022-08-21T01:54:36;100729.56;;;15.16;71.82
59519;BME280;46994;54.976;73.404;2022-08-21T01:57:04;100744.47;;;15.61;70.47
59519;BME280;46994;54.976;73.404;2022-08-21T01:59:31;100747.81;;;15.98;69.36
59519;BME280;46994;54.976;73.404;2022-08-21T02:01:58;100738.13;;;16.17;68.14
59519;BME280;46994;54.976;73.404;2022-08-21T02:04:25;100733.81;;;16.29;67.04
59519;BME280;46994;54.976;73.404;2022-08-21T02:06:52;100747.88;;;16.52;66.15
59519;BME280;46994;54.976;73.404;2022-08-21T02:09:19;100738.56;;;16.68;65.11
59519;BME280;46994;54.976;73.404;2022-08-21T02:11:48;100745.84;;;16.81;64.64
59519;BME280;46994;54.976;73.404;2022-08-21T02:14:15;100739.00;;;16.72;64.39
59519;BME280;46994;54.976;73.404;2022-08-21T02:16:43;100727.47;;;16.56;64.91
59519;BME280;46994;54.976;73.404;2022-08-21T02:19:13;100732.72;;;16.71;64.75
59519;BME280;46994;54.976;73.404;2022-08-21T02:21:40;100720.06;;;16.72;64.42
59519;BME280;46994;54.976;73.404;2022-08-21T02:24:08;100727.75;;;16.75;64.52
59519;BME280;46994;54.976;73.404;2022-08-21T02:26:35;100740.84;;;16.71;64.49
59519;BME280;46994;54.976;73.404;2022-08-21T02:29:03;100721.19;;;16.49;65.02
59519;BME280;46994;54.976;73.404;2022-08-21T02:31:30;100729.75;;;16.53;65.75
59519;BME280;46994;54.976;73.404;2022-08-21T02:33:57;100719.56;;;16.55;65.00
59519;BME280;46994;54.976;73.404;2022-08-21T02:36:24;100726.47;;;16.71;65.15
59519;BME280;46994;54.976;73.404;2022-08-21T02:38:51;100735.25;;;16.73;64.99
59519;BME280;46994;54.976;73.404;2022-08-21T02:41:20;100729.09;;;16.51;66.33
59519;BME280;46994;54.976;73.404;2022-08-21T02:43:48;100737.22;;;16.44;67.63
59519;BME280;46994;54.976;73.404;2022-08-21T02:46:16;100731.34;;;16.41;67.57
59519;BME280;46994;54.976;73.404;2022-08-21T02:48:44;100722.44;;;16.47;67.36
59519;BME280;46994;54.976;73.404;2022-08-21T02:51:13;100729.47;;;16.41;67.24
59519;BME280;46994;54.976;73.404;2022-08-21T02:53:41;100722.38;;;16.27;67.62
59519;BME280;46994;54.976;73.404;2022-08-21T02:56:09;100731.81;;;16.51;67.84
59519;BME280;46994;54.976;73.404;2022-08-21T02:58:40;100737.66;;;16.54;67.09
59519;BME280;46994;54.976;73.404;2022-08-21T03:01:09;100737.81;;;16.40;67.58
59519;BME280;46994;54.976;73.404;2022-08-21T03:03:41;100735.09;;;16.33;68.33
59519;BME280;46994;54.976;73.404;2022-08-21T03:06:09;100730.31;;;16.35;67.89
59519;BME280;46994;54.976;73.404;2022-08-21T03:08:37;100739.28;;;16.49;67.81
59519;BME280;46994;54.976;73.404;2022-08-21T03:11:05;100740.97;;;16.43;68.06
59519;BME280;46994;54.976;73.404;2022-08-21T03:13:32;100734.72;;;16.43;68.16
59519;BME280;46994;54.976;73.404;2022-08-21T03:15:59;100740.53;;;16.46;68.17
59519;BME280;46994;54.976;73.404;2022-08-21T03:18:26;100722.13;;;16.15;68.92
59519;BME280;46994;54.976;73.404;2022-08-21T03:20:52;100740.84;;;16.17;69.55
59519;BME280;46994;54.976;73.404;2022-08-21T03:23:19;100738.72;;;16.12;69.27
59519;BME280;46994;54.976;73.404;2022-08-21T03:25:47;100739.84;;;16.24;69.03
59519;BME280;46994;54.976;73.404;2022-08-21T03:28:17;100735.03;;;16.20;68.75
59519;BME280;46994;54.976;73.404;2022-08-21T03:30:48;100756.09;;;16.31;68.75
59519;BME280;46994;54.976;73.404;2022-08-21T03:33:17;100735.47;;;16.30;68.47
59519;BME280;46994;54.976;73.404;2022-08-21T03:35:49;100738.63;;;16.33;68.71
59519;BME280;46994;54.976;73.404;2022-08-21T03:38:20;100751.13;;;16.41;68.83
59519;BME280;46994;54.976;73.404;2022-08-21T03:40:47;100761.66;;;16.16;69.91
59519;BME280;46994;54.976;73.404;2022-08-21T03:43:14;100749.16;;;15.74;70.91
59519;BME280;46994;54.976;73.404;2022-08-21T03:45:41;100758.97;;;15.54;71.67
59519;BME280;46994;54.976;73.404;2022-08-21T03:48:08;100753.69;;;15.45;72.35
59519;BME280;46994;54.976;73.404;2022-08-21T03:50:38;100756.44;;;15.52;71.68
59519;BME280;46994;54.976;73.404;2022-08-21T03:53:06;100753.31;;;15.76;70.81
59519;BME280;46994;54.976;73.404;2022-08-21T03:55:32;100753.06;;;16.06;70.27
59519;BME280;46994;54.976;73.404;2022-08-21T03:57:59;100765.66;;;16.27;70.04
59519;BME280;46994;54.976;73.404;2022-08-21T04:00:26;100758.78;;;16.24;71.23
59519;BME280;46994;54.976;73.404;2022-08-21T04:02:53;100758.38;;;16.27;70.72
59519;BME280;46994;54.976;73.404;2022-08-21T04:05:21;100757.28;;;16.22;71.12
59519;BME280;46994;54.976;73.404;2022-08-21T04:07:58;100774.28;;;16.09;72.51
59519;BME280;46994;54.976;73.404;2022-08-21T04:10:28;100762.66;;;15.74;74.39
59519;BME280;46994;54.976;73.404;2022-08-21T04:12:56;100778.69;;;15.54;75.87
59519;BME280;46994;54.976;73.404;2022-08-21T04:15:25;100763.19;;;15.41;77.25
59519;BME280;46994;54.976;73.404;2022-08-21T04:17:52;100763.06;;;15.49;77.84
59519;BME280;46994;54.976;73.404;2022-08-21T04:20:20;100763.06;;;15.49;78.31
59519;BME280;46994;54.976;73.404;2022-08-21T04:22:48;100779.28;;;15.49;78.45
59519;BME280;46994;54.976;73.404;2022-08-21T04:25:18;100783.78;;;15.42;78.05
59519;BME280;46994;54.976;73.404;2022-08-21T04:27:45;100764.88;;;15.14;79.29
59519;BME280;46994;54.976;73.404;2022-08-21T04:30:13;100755.13;;;15.20;80.45
59519;BME280;46994;54.976;73.404;2022-08-21T04:32:48;100768.56;;;15.35;79.11
59519;BME280;46994;54.976;73.404;2022-08-21T04:35:19;100783.25;;;15.26;80.43
59519;BME280;46994;54.976;73.404;2022-08-21T04:37:47;100788.44;;;15.27;79.94
59519;BME280;46994;54.976;73.404;2022-08-21T04:40:16;100796.94;;;15.24;80.04
59519;BME280;46994;54.976;73.404;2022-08-21T04:42:51;100792.63;;;15.08;81.52
59519;BME280;46994;54.976;73.404;2022-08-21T04:45:25;100800.41;;;15.18;80.95
59519;BME280;46994;54.976;73.404;2022-08-21T04:47:54;100789.28;;;15.06;80.94
59519;BME280;46994;54.976;73.404;2022-08-21T04:50:30;100788.09;;;14.94;81.63
59519;BME280;46994;54.976;73.404;2022-08-21T04:53:08;100768.97;;;14.68;81.81
59519;BME280;46994;54.976;73.404;2022-08-21T04:55:37;100773.25;;;14.62;82.71
59519;BME280;46994;54.976;73.404;2022-08-21T04:58:05;100766.91;;;14.70;83.45
59519;BME280;46994;54.976;73.404;2022-08-21T05:00:34;100765.94;;;14.77;83.49
59519;BME280;46994;54.976;73.404;2022-08-21T05:03:02;100787.66;;;15.12;82.51
59519;BME280;46994;54.976;73.404;2022-08-21T05:05:30;100761.38;;;15.20;81.22
59519;BME280;46994;54.976;73.404;2022-08-21T05:07:59;100785.53;;;15.29;81.03
59519;BME280;46994;54.976;73.404;2022-08-21T05:10:28;100785.91;;;15.47;81.16
59519;BME280;46994;54.976;73.404;2022-08-21T05:12:55;100786.59;;;15.56;80.43
59519;BME280;46994;54.976;73.404;2022-08-21T05:15:22;100774.69;;;15.50;80.22
59519;BME280;46994;54.976;73.404;2022-08-21T05:17:49;100776.00;;;15.33;80.63
59519;BME280;46994;54.976;73.404;2022-08-21T05:20:16;100781.91;;;15.15;81.85
59519;BME280;46994;54.976;73.404;2022-08-21T05:22:43;100770.41;;;15.06;82.26
59519;BME280;46994;54.976;73.404;2022-08-21T05:25:10;100762.34;;;14.91;82.55
59519;BME280;46994;54.976;73.404;2022-08-21T05:27:37;100778.84;;;15.03;83.21
59519;BME280;46994;54.976;73.404;2022-08-21T05:30:07;100773.59;;;15.16;83.20
59519;BME280;46994;54.976;73.404;2022-08-21T05:32:35;100770.56;;;15.26;83.37
59519;BME280;46994;54.976;73.404;2022-08-21T05:35:04;100768.91;;;15.25;83.04
59519;BME280;46994;54.976;73.404;2022-08-21T05:37:31;100775.25;;;15.39;83.17
59519;BME280;46994;54.976;73.404;2022-08-21T05:39:59;100780.91;;;15.72;82.74
59519;BME280;46994;54.976;73.404;2022-08-21T05:42:26;100775.00;;;15.90;81.65
59519;BME280;46994;54.976;73.404;2022-08-21T05:44:54;100774.03;;;15.97;80.78
59519;BME280;46994;54.976;73.404;2022-08-21T05:47:20;100767.09;;;15.88;80.97
59519;BME280;46994;54.976;73.404;2022-08-21T05:49:47;100781.97;;;16.05;81.36
59519;BME280;46994;54.976;73.404;2022-08-21T05:52:21;100758.69;;;16.04;80.83
59519;BME280;46994;54.976;73.404;2022-08-21T05:54:48;100771.69;;;16.22;80.35
59519;BME280;46994;54.976;73.404;2022-08-21T05:57:15;100773.97;;;16.32;79.59
59519;BME280;46994;54.976;73.404;2022-08-21T05:59:42;100772.50;;;16.29;79.03
59519;BME280;46994;54.976;73.404;2022-08-21T06:02:09;100759.81;;;16.23;79.50
59519;BME280;46994;54.976;73.404;2022-08-21T06:04:37;100765.03;;;16.25;79.15
59519;BME280;46994;54.976;73.404;2022-08-21T06:07:04;100772.09;;;16.26;79.27
59519;BME280;46994;54.976;73.404;2022-08-21T06:09:31;100765.22;;;16.30;79.94
59519;BME280;46994;54.976;73.404;2022-08-21T06:11:58;100772.94;;;16.74;79.01
59519;BME280;46994;54.976;73.404;2022-08-21T06:14:24;100754.00;;;17.01;78.05
59519;BME280;46994;54.976;73.404;2022-08-21T06:16:51;100753.19;;;17.07;76.07
59519;BME280;46994;54.976;73.404;2022-08-21T06:19:18;100766.94;;;17.18;76.04
59519;BME280;46994;54.976;73.404;2022-08-21T06:21:44;100766.94;;;17.18;75.46
59519;BME280;46994;54.976;73.404;2022-08-21T06:24:11;100763.22;;;17.13;75.27
59519;BME280;46994;54.976;73.404;2022-08-21T06:26:38;100763.81;;;17.08;76.29
59519;BME280;46994;54.976;73.404;2022-08-21T06:29:05;100761.94;;;17.02;75.46
59519;BME280;46994;54.976;73.404;2022-08-21T06:31:32;100755.88;;;17.00;75.99
59519;BME280;46994;54.976;73.404;2022-08-21T06:33:58;100759.88;;;17.11;75.52
59519;BME280;46994;54.976;73.404;2022-08-21T06:36:25;100765.09;;;17.45;74.83
59519;BME280;46994;54.976;73.404;2022-08-21T06:38:52;100754.44;;;17.57;73.62
59519;BME280;46994;54.976;73.404;2022-08-21T06:41:20;100766.34;;;17.63;73.72
59519;BME280;46994;54.976;73.404;2022-08-21T06:43:46;100762.97;;;17.67;72.60
59519;BME280;46994;54.976;73.404;2022-08-21T06:46:13;100749.88;;;17.44;74.14
59519;BME280;46994;54.976;73.404;2022-08-21T06:48:40;100763.84;;;17.41;75.25
59519;BME280;46994;54.976;73.404;2022-08-21T06:51:07;100764.03;;;17.40;75.52
59519;BME280;46994;54.976;73.404;2022-08-21T06:53:34;100751.09;;;17.48;74.83
59519;BME280;46994;54.976;73.404;2022-08-21T06:56:01;100756.13;;;17.71;74.22
59519;BME280;46994;54.976;73.404;2022-08-21T06:58:28;100761.75;;;17.83;73.48
59519;BME280;46994;54.976;73.404;2022-08-21T07:00:55;100755.66;;;18.01;72.82
59519;BME280;46994;54.976;73.404;2022-08-21T07:03:23;100767.34;;;18.01;73.22
59519;BME280;46994;54.976;73.404;2022-08-21T07:05:51;100744.38;;;18.04;71.97
59519;BME280;46994;54.976;73.404;2022-08-21T07:08:18;100744.66;;;18.34;71.11
59519;BME280;46994;54.976;73.404;2022-08-21T07:10:45;100755.72;;;18.39;70.63
59519;BME280;46994;54.976;73.404;2022-08-21T07:13:12;100753.03;;;18.26;71.87
59519;BME280;46994;54.976;73.404;2022-08-21T07:15:39;100769.44;;;17.93;73.18
59519;BME280;46994;54.976;73.404;2022-08-21T07:18:06;100761.13;;;17.55;75.33
59519;BME280;46994;54.976;73.404;2022-08-21T07:20:34;100769.47;;;17.46;76.54
59519;BME280;46994;54.976;73.404;2022-08-21T07:23:04;100755.06;;;17.19;77.50
59519;BME280;46994;54.976;73.404;2022-08-21T07:25:32;100772.38;;;17.05;78.13
59519;BME280;46994;54.976;73.404;2022-08-21T07:27:59;100772.97;;;17.01;78.81
59519;BME280;46994;54.976;73.404;2022-08-21T07:30:26;100770.72;;;17.11;78.51
59519;BME280;46994;54.976;73.404;2022-08-21T07:32:53;100776.53;;;17.14;78.80
59519;BME280;46994;54.976;73.404;2022-08-21T07:35:20;100764.25;;;17.18;77.64
59519;BME280;46994;54.976;73.404;2022-08-21T07:37:47;100779.47;;;17.33;77.62
59519;BME280;46994;54.976;73.404;2022-08-21T07:40:15;100766.94;;;17.18;77.71
59519;BME280;46994;54.976;73.404;2022-08-21T07:42:45;100787.78;;;17.18;77.91
59519;BME280;46994;54.976;73.404;2022-08-21T07:45:13;100783.19;;;16.99;78.58
59519;BME280;46994;54.976;73.404;2022-08-21T07:47:40;100770.91;;;17.03;77.32
59519;BME280;46994;54.976;73.404;2022-08-21T07:50:07;100786.53;;;17.27;76.28
59519;BME280;46994;54.976;73.404;2022-08-21T07:52:34;100783.59;;;17.09;76.13
59519;BME280;46994;54.976;73.404;2022-08-21T07:55:01;100791.47;;;16.90;76.38
59519;BME280;46994;54.976;73.404;2022-08-21T07:57:27;100794.81;;;16.86;75.73
59519;BME280;46994;54.976;73.404;2022-08-21T07:59:55;100801.63;;;16.69;75.37
59519;BME280;46994;54.976;73.404;2022-08-21T08:02:26;100800.16;;;16.66;75.79
59519;BME280;46994;54.976;73.404;2022-08-21T08:04:54;100797.44;;;16.66;75.87
59519;BME280;46994;54.976;73.404;2022-08-21T08:07:21;100798.47;;;16.65;75.37
59519;BME280;46994;54.976;73.404;2022-08-21T08:09:48;100799.78;;;16.76;75.39
59519;BME280;46994;54.976;73.404;2022-08-21T08:12:14;100793.97;;;16.79;75.70
59519;BME280;46994;54.976;73.404;2022-08-21T08:14:41;100802.31;;;16.90;75.64
59519;BME280;46994;54.976;73.404;2022-08-21T08:17:08;100793.78;;;16.87;74.76
59519;BME280;46994;54.976;73.404;2022-08-21T08:19:35;100808.94;;;16.75;75.60
59519;BME280;46994;54.976;73.404;2022-08-21T08:22:12;100820.91;;;16.52;75.17
59519;BME280;46994;54.976;73.404;2022-08-21T08:24:39;100831.44;;;16.34;75.97
59519;BME280;46994;54.976;73.404;2022-08-21T08:27:06;100818.94;;;15.98;76.53
59519;BME280;46994;54.976;73.404;2022-08-21T08:29:33;100838.91;;;15.97;77.31
59519;BME280;46994;54.976;73.404;2022-08-21T08:31:59;100816.78;;;15.87;77.33
59519;BME280;46994;54.976;73.404;2022-08-21T08:34:27;100821.31;;;15.80;77.29
59519;BME280;46994;54.976;73.404;2022-08-21T08:36:53;100840.91;;;15.61;77.44
59519;BME280;46994;54.976;73.404;2022-08-21T08:39:20;100840.06;;;15.60;77.97
59519;BME280;46994;54.976;73.404;2022-08-21T08:41:47;100837.63;;;15.65;77.75
59519;BME280;46994;54.976;73.404;2022-08-21T08:44:17;100827.41;;;15.61;77.43
59519;BME280;46994;54.976;73.404;2022-08-21T08:46:47;100834.13;;;15.71;77.29
59519;BME280;46994;54.976;73.404;2022-08-21T08:49:34;100835.88;;;15.79;76.73
59519;BME280;46994;54.976;73.404;2022-08-21T08:54:53;100833.06;;;15.94;76.28
59519;BME280;46994;54.976;73.404;2022-08-21T08:57:23;100841.75;;;15.89;76.13
59519;BME280;46994;54.976;73.404;2022-08-21T08:59:56;100828.03;;;15.91;75.91
59519;BME280;46994;54.976;73.404;2022-08-21T09:02:24;100824.50;;;15.90;75.80
59519;BME280;46994;54.976;73.404;2022-08-21T09:04:51;100830.84;;;15.76;76.27
59519;BME280;46994;54.976;73.404;2022-08-21T09:10:26;100833.44;;;15.41;77.28
59519;BME280;46994;54.976;73.404;2022-08-21T09:14:07;100824.94;;;15.23;77.47
59519;BME280;46994;54.976;73.404;2022-08-21T09:16:18;100838.47;;;15.44;77.12
59519;BME280;46994;54.976;73.404;2022-08-21T09:19:11;100848.53;;;15.57;75.76
59519;BME280;46994;54.976;73.404;2022-08-21T09:22:00;100839.03;;;15.61;75.22
59519;BME280;46994;54.976;73.404;2022-08-21T09:24:31;100839.16;;;15.74;75.09
59519;BME280;46994;54.976;73.404;2022-08-21T09:27:07;100845.91;;;15.85;73.74
59519;BME280;46994;54.976;73.404;2022-08-21T09:29:37;100853.19;;;15.91;73.00
59519;BME280;46994;54.976;73.404;2022-08-21T09:32:16;100830.88;;;15.83;72.64
59519;BME280;46994;54.976;73.404;2022-08-21T09:37:26;100826.34;;;15.83;72.47
59519;BME280;46994;54.976;73.404;2022-08-21T09:39:56;100835.09;;;15.85;72.40
59519;BME280;46994;54.976;73.404;2022-08-21T09:42:30;100829.69;;;15.85;71.90
59519;BME280;46994;54.976;73.404;2022-08-21T09:45:10;100829.81;;;15.77;71.73
59519;BME280;46994;54.976;73.404;2022-08-21T09:47:37;100827.13;;;15.77;72.52
59519;BME280;46994;54.976;73.404;2022-08-21T09:52:49;100851.31;;;15.85;71.76
59519;BME280;46994;54.976;73.404;2022-08-21T09:55:38;100837.94;;;15.77;71.47
59519;BME280;46994;54.976;73.404;2022-08-21T09:58:32;100852.34;;;15.84;70.21
59519;BME280;46994;54.976;73.404;2022-08-21T10:01:02;100846.09;;;15.84;70.07
59519;BME280;46994;54.976;73.404;2022-08-21T10:03:29;100846.59;;;15.94;69.99
59519;BME280;46994;54.976;73.404;2022-08-21T10:05:57;100862.25;;;16.05;69.97
59519;BME280;46994;54.976;73.404;2022-08-21T10:08:26;100843.06;;;16.00;69.52
59519;BME280;46994;54.976;73.404;2022-08-21T10:11:01;100864.75;;;16.06;69.35
59519;BME280;46994;54.976;73.404;2022-08-21T10:22:18;100864.13;;;15.76;70.46
59519;BME280;46994;54.976;73.404;2022-08-21T10:30:44;100889.09;;;15.36;71.85
59519;BME280;46994;54.976;73.404;2022-08-21T10:42:02;100898.44;;;14.82;73.42
59519;BME280;46994;54.976;73.404;2022-08-21T10:47:36;100882.53;;;14.73;72.09
59519;BME280;46994;54.976;73.404;2022-08-21T10:56:15;100897.22;;;14.85;70.57
59519;BME280;46994;54.976;73.404;2022-08-21T10:58:53;100889.69;;;14.80;70.92
59519;BME280;46994;54.976;73.404;2022-08-21T11:06:59;100887.13;;;14.93;69.68
59519;BME280;46994;54.976;73.404;2022-08-21T11:09:28;100887.03;;;15.02;69.15
59519;BME280;46994;54.976;73.404;2022-08-21T11:12:19;100900.94;;;15.20;69.08
59519;BME280;46994;54.976;73.404;2022-08-21T11:15:34;100905.00;;;15.31;68.97
59519;BME280;46994;54.976;73.404;2022-08-21T11:29:36;100902.09;;;15.68;68.37
59519;BME280;46994;54.976;73.404;2022-08-21T11:35:11;100900.72;;;15.58;68.46
59519;BME280;46994;54.976;73.404;2022-08-21T11:37:52;100907.47;;;15.47;69.19
59519;BME280;46994;54.976;73.404;2022-08-21T11:41:02;100906.25;;;15.28;69.04
59519;BME280;46994;54.976;73.404;2022-08-21T11:49:22;100905.91;;;15.38;68.23
59519;BME280;46994;54.976;73.404;2022-08-21T11:54:39;100908.94;;;15.64;67.48
59519;BME280;46994;54.976;73.404;2022-08-21T12:00:36;100902.28;;;15.67;67.58
59519;BME280;46994;54.976;73.404;2022-08-21T12:03:12;100900.66;;;15.72;67.33
59519;BME280;46994;54.976;73.404;2022-08-21T12:05:42;100903.53;;;15.64;66.48
59519;BME280;46994;54.976;73.404;2022-08-21T12:10:40;100918.09;;;15.70;66.87
59519;BME280;46994;54.976;73.404;2022-08-21T12:13:29;100918.19;;;15.76;66.38
59519;BME280;46994;54.976;73.404;2022-08-21T12:16:14;100921.13;;;15.82;65.63
59519;BME280;46994;54.976;73.404;2022-08-21T12:18:42;100915.91;;;15.80;65.65
59519;BME280;46994;54.976;73.404;2022-08-21T12:21:29;100919.84;;;15.77;65.51
59519;BME280;46994;54.976;73.404;2022-08-21T12:24:15;100927.94;;;15.77;65.52
59519;BME280;46994;54.976;73.404;2022-08-21T12:26:53;100930.22;;;15.74;65.53
59519;BME280;46994;54.976;73.404;2022-08-21T12:29:27;100930.34;;;15.66;65.67
59519;BME280;46994;54.976;73.404;2022-08-21T12:31:59;100931.63;;;15.70;65.87
59519;BME280;46994;54.976;73.404;2022-08-21T12:40:10;100931.00;;;15.53;64.97
59519;BME280;46994;54.976;73.404;2022-08-21T12:42:42;100916.94;;;15.36;63.03
59519;BME280;46994;54.976;73.404;2022-08-21T12:45:37;100939.72;;;15.34;61.81
59519;BME280;46994;54.976;73.404;2022-08-21T12:48:12;100918.56;;;15.16;62.30
59519;BME280;46994;54.976;73.404;2022-08-21T12:50:51;100934.56;;;15.17;62.61
59519;BME280;46994;54.976;73.404;2022-08-21T12:56:09;100928.66;;;15.07;63.06
59519;BME280;46994;54.976;73.404;2022-08-21T12:58:40;100929.00;;;15.04;63.04
59519;BME280;46994;54.976;73.404;2022-08-21T13:01:17;100936.09;;;15.05;62.99
59519;BME280;46994;54.976;73.404;2022-08-21T13:03:46;100928.75;;;14.84;64.26
59519;BME280;46994;54.976;73.404;2022-08-21T13:06:15;100944.84;;;14.92;63.99
59519;BME280;46994;54.976;73.404;2022-08-21T13:08:45;100930.66;;;14.69;62.88
59519;BME280;46994;54.976;73.404;2022-08-21T13:11:16;100932.41;;;14.62;64.13
59519;BME280;46994;54.976;73.404;2022-08-21T13:13:49;100952.22;;;14.69;62.94
59519;BME280;46994;54.976;73.404;2022-08-21T13:16:24;100955.94;;;14.68;62.45
59519;BME280;46994;54.976;73.404;2022-08-21T13:19:04;100961.25;;;14.61;62.07
59519;BME280;46994;54.976;73.404;2022-08-21T13:21:40;100963.94;;;14.61;62.26
59519;BME280;46994;54.976;73.404;2022-08-21T13:26:44;100957.53;;;14.62;61.19
59519;BME280;46994;54.976;73.404;2022-08-21T13:29:13;100957.06;;;14.59;61.24
59519;BME280;46994;54.976;73.404;2022-08-21T13:31:48;100963.00;;;14.54;61.83
59519;BME280;46994;54.976;73.404;2022-08-21T13:34:15;100979.81;;;14.42;61.98
59519;BME280;46994;54.976;73.404;2022-08-21T13:36:44;100969.09;;;14.33;62.20
59519;BME280;46994;54.976;73.404;2022-08-21T13:39:17;100986.47;;;14.31;62.44
59519;BME280;46994;54.976;73.404;2022-08-21T13:41:48;100971.84;;;14.25;62.43
59519;BME280;46994;54.976;73.404;2022-08-21T13:44:21;100978.75;;;14.28;62.44
59519;BME280;46994;54.976;73.404;2022-08-21T13:46:53;100982.75;;;14.32;62.91
59519;BME280;46994;54.976;73.404;2022-08-21T13:49:26;100982.94;;;14.30;63.01
59519;BME280;46994;54.976;73.404;2022-08-21T13:51:55;100982.19;;;14.22;63.10
59519;BME280;46994;54.976;73.404;2022-08-21T13:56:53;100987.81;;;14.12;62.98
59519;BME280;46994;54.976;73.404;2022-08-21T13:59:29;100976.66;;;14.00;63.08
59519;BME280;46994;54.976;73.404;2022-08-21T14:02:10;100990.06;;;14.09;63.19
59519;BME280;46994;54.976;73.404;2022-08-21T14:04:44;100977.28;;;14.02;63.41
59519;BME280;46994;54.976;73.404;2022-08-21T14:07:19;100995.31;;;14.02;63.07
59519;BME280;46994;54.976;73.404;2022-08-21T14:09:47;100994.53;;;13.93;62.71
59519;BME280;46994;54.976;73.404;2022-08-21T14:14:51;100996.47;;;13.85;66.02
59519;BME280;46994;54.976;73.404;2022-08-21T14:17:29;100980.28;;;13.85;63.62
59519;BME280;46994;54.976;73.404;2022-08-21T14:19:57;101002.81;;;13.92;63.42
59519;BME280;46994;54.976;73.404;2022-08-21T14:25:36;101001.00;;;13.84;62.42
59519;BME280;46994;54.976;73.404;2022-08-21T14:30:36;101010.50;;;13.80;62.08
59519;BME280;46994;54.976;73.404;2022-08-21T14:33:07;101010.91;;;13.69;62.02
59519;BME280;46994;54.976;73.404;2022-08-21T14:35:35;101018.84;;;13.62;62.06